Time;durP1;ratioP1;P1;durP2;ratioP2;P2;SDS_P1;SDS_P2;PMS_P1;PMS_P2;Temp;Humidity;BMP_temperature;BMP_pressure;BME280_temperature;BME280_humidity;BME280_pressure;Samples;Min_cycle;Max_cycle;Signal;HPM_P1;HPM_P2
2023/04/03 00:00:44;;;;;;;2.75;1.42;;;8.00;49.40;;;;;;4981160;28;20062;-45
2023/04/03 00:03:11;;;;;;;3.75;1.63;;;7.90;49.40;;;;;;4982224;28;20069;-43
2023/04/03 00:05:39;;;;;;;3.42;1.33;;;7.90;49.60;;;;;;4983293;28;20054;-44
2023/04/03 00:08:07;;;;;;;4.22;1.60;;;7.90;49.60;;;;;;4984641;28;20053;-45
2023/04/03 00:10:35;;;;;;;5.47;1.50;;;7.90;49.70;;;;;;4981588;28;20062;-44
2023/04/03 00:13:04;;;;;;;4.68;1.60;;;7.80;49.80;;;;;;4983065;28;20054;-47
2023/04/03 00:15:32;;;;;;;2.42;1.40;;;7.80;50.00;;;;;;4981744;28;20483;-47
2023/04/03 00:17:59;;;;;;;3.05;1.40;;;7.80;50.00;;;;;;4981932;28;20054;-47
2023/04/03 00:20:28;;;;;;;4.03;1.48;;;7.80;49.90;;;;;;4981926;28;20084;-45
2023/04/03 00:22:55;;;;;;;2.97;1.35;;;7.80;50.10;;;;;;4981948;28;20047;-44
2023/04/03 00:25:22;;;;;;;5.32;1.65;;;7.80;50.10;;;;;;4980809;28;21362;-46
2023/04/03 00:27:50;;;;;;;3.75;1.80;;;7.70;50.00;;;;;;4982966;28;20061;-45
2023/04/03 00:30:21;;;;;;;4.25;1.80;;;7.70;49.80;;;;;;4981622;28;20422;-46
2023/04/03 00:32:49;;;;;;;2.58;1.38;;;7.70;49.70;;;;;;4982050;28;20058;-46
2023/04/03 00:35:16;;;;;;;7.97;1.60;;;7.80;49.90;;;;;;4980244;28;20061;-44
2023/04/03 00:37:45;;;;;;;2.08;1.42;;;7.80;50.00;;;;;;4984325;28;20081;-44
2023/04/03 00:40:13;;;;;;;2.55;1.25;;;7.80;50.00;;;;;;4981181;28;21341;-47
2023/04/03 00:42:42;;;;;;;2.65;1.67;;;7.80;50.10;;;;;;4983973;28;20069;-48
2023/04/03 00:45:31;;;;;;;2.85;1.27;;;7.80;50.10;;;;;;4980816;28;20050;-47
2023/04/03 00:48:00;;;;;;;2.30;1.25;;;7.90;50.20;;;;;;4979129;28;20058;-48
2023/04/03 00:50:29;;;;;;;3.53;1.17;;;7.90;50.20;;;;;;4980239;28;20051;-46
2023/04/03 00:52:57;;;;;;;5.10;1.45;;;8.00;50.20;;;;;;4982543;28;20422;-50
2023/04/03 00:55:24;;;;;;;4.30;1.40;;;8.00;50.10;;;;;;4982189;28;20065;-45
2023/04/03 00:57:53;;;;;;;2.40;1.35;;;8.00;50.00;;;;;;4981714;28;20065;-47
2023/04/03 01:00:24;;;;;;;2.08;1.38;;;8.00;50.00;;;;;;4982864;28;20050;-48
2023/04/03 01:02:52;;;;;;;2.35;1.10;;;8.10;50.00;;;;;;5002068;23;20124;-42
2023/04/03 01:05:21;;;;;;;3.03;1.50;;;8.10;50.00;;;;;;4998437;28;20493;-41
2023/04/03 01:07:50;;;;;;;4.63;1.40;;;8.10;50.50;;;;;;5005857;28;20050;-40
2023/04/03 01:10:19;;;;;;;3.38;1.30;;;8.10;49.90;;;;;;5002359;28;20061;-40
2023/04/03 01:12:47;;;;;;;3.25;1.25;;;8.10;49.90;;;;;;5001948;28;20062;-42
2023/04/03 01:15:17;;;;;;;3.33;1.48;;;8.10;49.90;;;;;;5001905;28;20050;-41
2023/04/03 01:17:48;;;;;;;2.40;1.40;;;8.10;49.90;;;;;;5005491;28;20485;-39
2023/04/03 01:20:40;;;;;;;2.00;1.20;;;8.20;50.00;;;;;;5001170;28;20421;-42
2023/04/03 01:23:22;;;;;;;3.00;1.45;;;8.20;50.10;;;;;;5004231;28;20413;-40
2023/04/03 01:25:52;;;;;;;5.75;1.33;;;8.20;50.10;;;;;;5005419;28;20057;-40
2023/04/03 01:28:22;;;;;;;2.95;1.55;;;8.20;50.10;;;;;;5004787;28;20056;-42
2023/04/03 01:30:57;;;;;;;3.22;1.23;;;8.20;50.10;;;;;;4998162;28;20050;-42
2023/04/03 01:33:26;;;;;;;2.53;1.33;;;8.20;50.10;;;;;;5005353;28;20058;-41
2023/04/03 01:35:53;;;;;;;3.25;1.40;;;8.20;50.10;;;;;;5002121;28;20128;-40
2023/04/03 01:38:20;;;;;;;3.42;1.35;;;8.20;50.10;;;;;;5000704;28;20061;-43
2023/04/03 01:40:47;;;;;;;3.13;1.48;;;8.20;50.10;;;;;;5004637;28;20054;-39
2023/04/03 01:43:15;;;;;;;3.63;1.38;;;8.10;50.10;;;;;;5001547;28;20057;-43
2023/04/03 01:45:42;;;;;;;2.08;1.35;;;8.10;50.10;;;;;;5000521;28;20058;-40
2023/04/03 01:48:09;;;;;;;2.65;1.50;;;8.10;50.20;;;;;;5001896;28;20065;-42
2023/04/03 01:50:38;;;;;;;4.40;1.60;;;8.20;50.30;;;;;;5005418;28;20050;-43
2023/04/03 01:53:05;;;;;;;3.22;1.20;;;8.10;50.30;;;;;;5002880;28;20050;-40
2023/04/03 01:55:33;;;;;;;3.08;1.15;;;8.10;50.30;;;;;;5001152;28;20065;-39
2023/04/03 01:58:00;;;;;;;2.65;1.38;;;8.10;50.30;;;;;;4999904;28;20065;-41
2023/04/03 02:00:27;;;;;;;2.67;1.40;;;8.20;50.40;;;;;;5000336;28;20054;-44
2023/04/03 02:02:55;;;;;;;3.25;1.50;;;8.20;50.30;;;;;;5002469;28;20061;-41
2023/04/03 02:05:22;;;;;;;3.97;1.13;;;8.10;50.30;;;;;;5001400;28;20050;-40
2023/04/03 02:07:50;;;;;;;3.00;1.33;;;8.10;50.20;;;;;;5008132;28;20061;-40
2023/04/03 02:10:18;;;;;;;2.30;1.42;;;8.10;50.30;;;;;;5007394;28;20482;-40
2023/04/03 02:12:45;;;;;;;4.28;1.30;;;8.10;50.30;;;;;;5004185;28;20050;-40
2023/04/03 02:15:12;;;;;;;2.25;1.30;;;8.10;50.40;;;;;;5003445;28;20061;-42
2023/04/03 02:17:40;;;;;;;3.42;1.25;;;8.10;50.50;;;;;;5001848;28;20059;-40
2023/04/03 02:20:08;;;;;;;5.43;1.38;;;8.10;50.50;;;;;;5007593;28;20428;-41
2023/04/03 02:22:36;;;;;;;5.53;2.30;;;8.00;50.50;;;;;;5004892;28;20061;-45
2023/04/03 02:25:05;;;;;;;3.65;1.60;;;8.00;50.50;;;;;;5001356;28;20498;-44
2023/04/03 02:27:32;;;;;;;3.58;1.50;;;8.00;50.50;;;;;;5005318;28;20409;-42
2023/04/03 02:29:59;;;;;;;4.95;1.88;;;8.00;50.50;;;;;;5005564;28;20042;-40
2023/04/03 02:32:27;;;;;;;2.05;1.40;;;8.00;50.50;;;;;;4995438;28;20489;-43
2023/04/03 02:34:54;;;;;;;3.08;1.50;;;8.00;50.40;;;;;;4998904;28;20053;-39
2023/04/03 02:37:21;;;;;;;2.90;1.58;;;7.90;50.40;;;;;;5002003;28;20410;-41
2023/04/03 02:39:48;;;;;;;5.25;1.75;;;7.90;50.40;;;;;;5010978;28;20045;-45
2023/04/03 02:42:17;;;;;;;7.28;1.80;;;7.90;50.40;;;;;;5004450;28;20056;-42
2023/04/03 02:44:45;;;;;;;5.63;1.50;;;7.80;50.30;;;;;;5001710;28;20061;-43
2023/04/03 02:47:12;;;;;;;2.70;1.33;;;7.80;50.20;;;;;;5010197;28;20061;-41
2023/04/03 02:49:39;;;;;;;3.10;1.75;;;7.80;50.20;;;;;;5006306;28;20037;-42
2023/04/03 02:52:06;;;;;;;6.25;1.85;;;7.80;50.20;;;;;;5000672;28;20056;-42
2023/04/03 02:54:33;;;;;;;5.03;1.85;;;7.70;50.20;;;;;;5009694;28;20421;-41
2023/04/03 02:57:01;;;;;;;3.13;1.20;;;7.70;50.20;;;;;;5012781;28;20066;-41
2023/04/03 02:59:29;;;;;;;8.57;1.77;;;7.70;50.30;;;;;;5010296;28;20528;-40
2023/04/03 03:01:57;;;;;;;8.40;1.50;;;7.70;50.20;;;;;;5004860;28;20046;-44
2023/04/03 03:04:24;;;;;;;2.95;1.42;;;7.60;50.10;;;;;;5005021;28;20057;-40
2023/04/03 03:06:52;;;;;;;5.95;1.55;;;7.60;50.60;;;;;;5001554;28;20057;-38
2023/04/03 03:09:19;;;;;;;3.80;1.48;;;7.60;50.10;;;;;;5001773;28;20060;-42
2023/04/03 03:11:46;;;;;;;3.80;1.60;;;7.60;50.10;;;;;;5011008;28;20065;-43
2023/04/03 03:14:13;;;;;;;2.75;2.08;;;7.50;50.20;;;;;;5006627;28;20409;-40
2023/04/03 03:16:42;;;;;;;5.30;1.55;;;7.50;50.20;;;;;;5006585;28;20084;-42
2023/04/03 03:19:10;;;;;;;5.97;1.70;;;7.40;50.20;;;;;;5007740;28;20059;-43
2023/04/03 03:21:37;;;;;;;4.45;1.42;;;7.40;50.20;;;;;;5005197;28;20513;-41
2023/04/03 03:24:04;;;;;;;5.68;1.50;;;7.30;50.20;;;;;;5016572;28;20065;-39
2023/04/03 03:26:32;;;;;;;7.45;1.73;;;7.30;50.40;;;;;;5005303;28;20206;-39
2023/04/03 03:28:59;;;;;;;6.25;1.90;;;7.30;50.60;;;;;;5011268;28;20049;-40
2023/04/03 03:31:27;;;;;;;3.97;1.70;;;7.20;50.60;;;;;;4997144;28;20053;-42
2023/04/03 03:33:55;;;;;;;4.07;1.55;;;7.20;50.60;;;;;;5003536;28;20049;-39
2023/04/03 03:36:22;;;;;;;3.72;1.70;;;7.20;50.70;;;;;;5003302;28;20061;-40
2023/04/03 03:38:50;;;;;;;2.65;1.58;;;7.10;50.60;;;;;;5010875;28;20064;-39
2023/04/03 03:41:17;;;;;;;4.50;1.83;;;7.10;50.60;;;;;;5000913;28;20467;-41
2023/04/03 03:43:44;;;;;;;5.75;2.10;;;7.10;50.70;;;;;;5009493;28;20061;-44
2023/04/03 03:46:11;;;;;;;4.97;1.50;;;7.10;50.80;;;;;;5004326;28;20418;-42
2023/04/03 03:48:39;;;;;;;5.47;1.67;;;7.00;50.80;;;;;;5005513;28;20060;-40
2023/04/03 03:51:07;;;;;;;5.10;1.77;;;7.00;50.90;;;;;;5004181;28;20591;-40
2023/04/03 03:53:35;;;;;;;5.25;1.98;;;7.00;51.00;;;;;;5010672;28;20049;-38
2023/04/03 03:56:02;;;;;;;6.82;2.08;;;6.90;50.80;;;;;;5009798;28;20058;-40
2023/04/03 03:58:29;;;;;;;3.85;1.40;;;6.80;50.80;;;;;;5011181;28;20061;-43
2023/04/03 04:00:57;;;;;;;5.78;1.75;;;6.80;50.90;;;;;;5007097;28;20417;-42
2023/04/03 04:03:24;;;;;;;5.70;1.45;;;6.80;51.00;;;;;;5010259;28;20062;-43
2023/04/03 04:05:51;;;;;;;6.18;1.52;;;6.80;51.00;;;;;;5010605;28;20412;-41
2023/04/03 04:08:20;;;;;;;6.18;1.58;;;6.80;51.10;;;;;;5010273;28;20049;-42
2023/04/03 04:10:47;;;;;;;3.88;1.50;;;6.80;51.20;;;;;;5002756;28;20054;-42
2023/04/03 04:13:14;;;;;;;5.32;1.42;;;6.70;51.20;;;;;;4998778;28;20057;-39
2023/04/03 04:15:42;;;;;;;3.83;1.80;;;6.80;51.20;;;;;;4997368;28;20069;-44
2023/04/03 04:18:09;;;;;;;3.42;1.50;;;6.80;51.30;;;;;;5000256;28;20042;-39
2023/04/03 04:20:37;;;;;;;5.07;1.48;;;6.70;51.20;;;;;;5004200;28;20058;-40
2023/04/03 04:23:04;;;;;;;5.00;1.23;;;6.70;51.30;;;;;;5007796;28;20056;-41
2023/04/03 04:25:33;;;;;;;4.72;1.38;;;6.70;51.30;;;;;;4999847;28;20064;-40
2023/04/03 04:28:00;;;;;;;3.60;1.48;;;6.80;51.30;;;;;;5004828;28;20069;-41
2023/04/03 04:30:28;;;;;;;2.00;1.20;;;6.80;51.30;;;;;;5019613;28;20049;-39
2023/04/03 04:32:55;;;;;;;5.40;1.30;;;6.70;51.20;;;;;;5006962;28;20057;-40
2023/04/03 04:35:23;;;;;;;3.33;1.33;;;6.80;51.20;;;;;;5005315;28;20061;-38
2023/04/03 04:37:50;;;;;;;4.78;1.30;;;6.80;51.10;;;;;;5013274;28;20100;-38
2023/04/03 04:40:18;;;;;;;5.60;1.30;;;6.70;51.10;;;;;;5007510;28;20072;-40
2023/04/03 04:42:46;;;;;;;5.20;1.60;;;6.70;51.00;;;;;;5010970;28;20064;-37
2023/04/03 04:45:14;;;;;;;3.65;1.05;;;6.70;50.90;;;;;;5003275;28;20052;-44
2023/04/03 04:47:43;;;;;;;5.75;1.30;;;6.70;50.90;;;;;;4994950;28;20064;-37
2023/04/03 04:50:11;;;;;;;18.40;5.50;;;6.70;50.90;;;;;;4990355;28;20053;-40
2023/04/03 04:52:38;;;;;;;10.38;4.05;;;6.70;50.90;;;;;;4992080;28;20053;-40
2023/04/03 04:55:07;;;;;;;6.68;2.28;;;6.70;50.80;;;;;;4995370;28;20405;-39
2023/04/03 04:57:34;;;;;;;4.35;2.05;;;6.60;50.70;;;;;;4992173;28;20391;-41
2023/04/03 05:00:04;;;;;;;4.40;1.38;;;6.70;50.80;;;;;;4992173;28;20058;-37
2023/04/03 05:02:31;;;;;;;4.20;1.30;;;6.60;50.70;;;;;;4999940;28;20057;-37
2023/04/03 05:04:58;;;;;;;2.67;1.10;;;6.60;50.70;;;;;;4986879;28;20417;-39
2023/04/03 05:07:26;;;;;;;6.00;1.10;;;6.60;50.60;;;;;;4989830;28;20053;-37
2023/04/03 05:09:53;;;;;;;3.42;1.42;;;6.60;50.70;;;;;;4990240;28;20054;-42
2023/04/03 05:12:20;;;;;;;6.55;3.22;;;6.60;50.70;;;;;;4992022;28;20058;-39
2023/04/03 05:14:47;;;;;;;11.52;3.75;;;6.60;50.60;;;;;;4990357;28;20057;-39
2023/04/03 05:17:16;;;;;;;4.03;1.75;;;6.60;50.70;;;;;;4996164;28;20050;-41
2023/04/03 05:19:43;;;;;;;4.05;1.63;;;6.50;50.60;;;;;;4996782;28;20058;-39
2023/04/03 05:22:11;;;;;;;4.00;1.65;;;6.50;50.70;;;;;;5002971;28;20057;-39
2023/04/03 05:24:38;;;;;;;2.33;0.98;;;6.50;50.70;;;;;;5003952;28;20058;-40
2023/04/03 05:27:05;;;;;;;2.60;1.27;;;6.50;50.80;;;;;;5003945;28;20508;-38
2023/04/03 05:29:33;;;;;;;2.53;1.10;;;6.50;50.80;;;;;;5000469;28;20053;-38
2023/04/03 05:32:00;;;;;;;3.95;1.13;;;6.50;50.90;;;;;;4986609;28;20122;-38
2023/04/03 05:34:28;;;;;;;3.33;1.02;;;6.50;50.90;;;;;;4995924;28;20058;-43
2023/04/03 05:36:56;;;;;;;4.15;1.30;;;6.50;50.90;;;;;;5007131;28;20049;-42
2023/04/03 05:39:24;;;;;;;3.80;1.30;;;6.50;51.00;;;;;;4985915;28;20049;-40
2023/04/03 05:41:51;;;;;;;3.67;1.35;;;6.50;51.10;;;;;;4990283;28;20493;-38
2023/04/03 05:44:19;;;;;;;3.38;0.93;;;6.60;51.00;;;;;;5003766;28;20069;-39
2023/04/03 05:46:47;;;;;;;5.57;1.50;;;6.50;51.00;;;;;;4988075;28;20058;-38
2023/04/03 05:49:14;;;;;;;3.83;1.20;;;6.50;50.90;;;;;;4988673;28;20064;-37
2023/04/03 05:51:44;;;;;;;2.72;1.02;;;6.60;51.00;;;;;;4989000;28;20049;-39
2023/04/03 05:54:17;;;;;;;3.88;1.15;;;6.60;51.00;;;;;;4986002;28;21116;-42
2023/04/03 05:56:45;;;;;;;3.50;1.30;;;6.60;51.00;;;;;;4987226;28;20060;-41
2023/04/03 05:59:12;;;;;;;5.85;1.45;;;6.60;51.10;;;;;;4988740;28;20630;-40
2023/04/03 06:01:40;;;;;;;4.68;1.70;;;6.60;51.10;;;;;;4990998;28;20042;-39
2023/04/03 06:04:08;;;;;;;9.98;2.53;;;6.60;51.10;;;;;;4996282;28;20429;-37
2023/04/03 06:06:48;;;;;;;32.33;4.80;;;6.70;51.20;;;;;;4989172;28;20064;-39
2023/04/03 06:09:17;;;;;;;61.65;9.00;;;6.70;51.10;;;;;;4986636;28;20057;-39
2023/04/03 06:11:44;;;;;;;46.13;6.40;;;6.70;51.20;;;;;;4992442;28;20081;-37
2023/04/03 06:14:12;;;;;;;53.17;9.00;;;6.70;51.20;;;;;;4989777;28;20057;-40
2023/04/03 06:16:39;;;;;;;12.27;3.45;;;6.70;51.20;;;;;;4990838;28;20062;-36
2023/04/03 06:19:07;;;;;;;9.98;2.58;;;6.80;51.20;;;;;;4991706;28;20057;-40
2023/04/03 06:21:35;;;;;;;6.75;1.77;;;6.80;51.10;;;;;;4988976;28;20053;-40
2023/04/03 06:24:04;;;;;;;4.68;1.40;;;6.80;51.10;;;;;;4987381;28;20058;-37
2023/04/03 06:26:33;;;;;;;10.15;1.58;;;6.80;51.10;;;;;;4992370;28;20060;-40
2023/04/03 06:29:00;;;;;;;5.35;1.40;;;6.90;51.10;;;;;;4988481;28;21882;-42
2023/04/03 06:31:27;;;;;;;3.85;1.27;;;6.90;51.00;;;;;;4995928;28;20042;-38
2023/04/03 06:33:55;;;;;;;7.07;1.73;;;6.90;51.00;;;;;;5002522;28;20061;-41
2023/04/03 06:36:22;;;;;;;5.93;1.98;;;6.90;51.00;;;;;;5005128;28;20061;-39
2023/04/03 06:38:49;;;;;;;7.38;1.58;;;7.00;51.00;;;;;;5007702;28;20505;-41
2023/04/03 06:41:18;;;;;;;7.15;1.52;;;7.00;50.80;;;;;;5008264;28;20057;-40
2023/04/03 06:43:45;;;;;;;3.20;1.25;;;7.10;50.90;;;;;;5006569;28;20057;-37
2023/04/03 06:46:16;;;;;;;10.27;1.77;;;7.10;51.00;;;;;;4994488;28;20046;-38
2023/04/03 06:48:44;;;;;;;5.05;1.40;;;7.10;51.00;;;;;;4987706;28;20076;-42
2023/04/03 06:51:22;;;;;;;6.18;1.90;;;7.10;50.90;;;;;;4992335;28;20749;-42
2023/04/03 06:53:51;;;;;;;4.47;1.33;;;7.20;50.80;;;;;;4995438;28;20064;-37
2023/04/03 06:56:20;;;;;;;22.02;7.28;;;7.20;50.60;;;;;;4989254;28;20054;-43
2023/04/03 06:58:47;;;;;;;18.55;7.05;;;7.20;50.40;;;;;;4986595;28;20050;-41
2023/04/03 07:01:17;;;;;;;8.70;3.25;;;7.20;50.50;;;;;;4989700;28;20478;-40
2023/04/03 07:03:44;;;;;;;10.88;2.20;;;7.30;50.50;;;;;;4987147;28;20188;-43
2023/04/03 07:06:13;;;;;;;8.10;1.88;;;7.30;50.40;;;;;;4993824;28;20064;-42
2023/04/03 07:08:41;;;;;;;4.72;1.67;;;7.40;50.60;;;;;;4990603;28;20485;-41
2023/04/03 07:11:10;;;;;;;6.88;1.60;;;7.40;50.50;;;;;;4990478;28;20069;-43
2023/04/03 07:13:39;;;;;;;3.63;1.50;;;7.40;50.40;;;;;;4988245;28;20057;-42
2023/04/03 07:16:07;;;;;;;6.80;1.35;;;7.50;50.40;;;;;;4991571;28;21170;-40
2023/04/03 07:18:34;;;;;;;5.07;1.35;;;7.50;50.20;;;;;;4987606;28;20065;-42
2023/04/03 07:21:02;;;;;;;5.82;1.17;;;7.50;50.20;;;;;;4989398;28;20073;-38
2023/04/03 07:23:30;;;;;;;6.20;1.60;;;7.50;50.10;;;;;;5001237;28;20084;-38
2023/04/03 07:25:57;;;;;;;6.40;1.63;;;7.60;50.10;;;;;;5001514;28;20061;-39
2023/04/03 07:28:24;;;;;;;5.85;1.50;;;7.60;50.10;;;;;;5011511;28;20481;-42
2023/04/03 07:30:55;;;;;;;6.28;1.33;;;7.70;50.00;;;;;;4999037;28;20046;-42
2023/04/03 07:33:23;;;;;;;7.53;1.60;;;7.70;50.10;;;;;;5004051;28;20054;-39
2023/04/03 07:35:51;;;;;;;3.97;1.65;;;7.70;50.60;;;;;;5003546;28;20485;-43
2023/04/03 07:38:18;;;;;;;5.63;1.60;;;7.80;50.10;;;;;;5011152;28;20420;-40
2023/04/03 07:40:47;;;;;;;5.78;1.70;;;7.80;50.00;;;;;;5008820;28;20050;-38
2023/04/03 07:43:15;;;;;;;7.13;1.63;;;7.90;49.90;;;;;;5009797;28;20049;-38
2023/04/03 07:45:43;;;;;;;4.15;1.33;;;7.90;49.70;;;;;;5007994;28;20054;-41
2023/04/03 07:48:12;;;;;;;6.25;1.27;;;7.90;49.50;;;;;;5001251;28;20064;-39
2023/04/03 07:50:41;;;;;;;6.13;1.55;;;7.90;49.40;;;;;;5003162;28;20060;-37
2023/04/03 07:53:09;;;;;;;4.50;1.48;;;8.00;49.40;;;;;;5008864;28;20409;-38
2023/04/03 07:55:42;;;;;;;5.72;1.50;;;8.00;49.30;;;;;;5009808;28;20437;-45
2023/04/03 07:58:10;;;;;;;7.32;2.10;;;8.00;49.20;;;;;;5014132;28;20638;-38
2023/04/03 08:00:38;;;;;;;7.90;1.50;;;8.10;48.90;;;;;;5008822;28;20049;-40
2023/04/03 08:03:05;;;;;;;5.88;1.88;;;8.10;48.70;;;;;;5008094;28;20046;-39
2023/04/03 08:05:37;;;;;;;6.57;1.80;;;8.10;48.80;;;;;;5008201;28;20060;-41
2023/04/03 08:08:04;;;;;;;6.32;1.65;;;8.10;48.70;;;;;;5007861;28;20054;-39
2023/04/03 08:10:32;;;;;;;3.03;1.10;;;8.10;48.70;;;;;;5009087;28;20064;-41
2023/04/03 08:13:00;;;;;;;9.27;1.48;;;8.10;48.80;;;;;;5004771;28;21758;-38
2023/04/03 08:15:27;;;;;;;5.00;1.50;;;8.10;48.80;;;;;;4999583;28;20056;-40
2023/04/03 08:17:55;;;;;;;6.97;1.88;;;8.20;48.90;;;;;;5003582;28;20052;-39
2023/04/03 08:20:22;;;;;;;7.00;1.65;;;8.20;48.80;;;;;;5001305;28;20485;-39
2023/04/03 08:22:51;;;;;;;7.85;1.92;;;8.20;48.80;;;;;;5004786;28;20058;-40
2023/04/03 08:25:18;;;;;;;6.85;1.42;;;8.20;48.80;;;;;;5007669;28;20112;-40
2023/04/03 08:27:45;;;;;;;9.88;1.40;;;8.20;48.80;;;;;;5005786;28;20057;-37
2023/04/03 08:30:14;;;;;;;4.88;1.50;;;8.30;48.90;;;;;;5004911;28;20056;-41
2023/04/03 08:32:42;;;;;;;4.68;1.73;;;8.30;48.80;;;;;;5007933;28;20152;-39
2023/04/03 08:35:10;;;;;;;8.13;1.98;;;8.30;48.70;;;;;;5004944;28;20544;-40
2023/04/03 08:37:39;;;;;;;8.63;1.90;;;8.40;48.90;;;;;;4999602;28;20057;-38
2023/04/03 08:40:13;;;;;;;8.20;2.15;;;8.40;48.90;;;;;;5003871;28;20057;-38
2023/04/03 08:42:52;;;;;;;5.25;1.70;;;8.40;48.80;;;;;;5001617;28;20050;-38
2023/04/03 08:45:28;;;;;;;6.40;1.95;;;8.50;48.70;;;;;;5002786;28;20387;-41
2023/04/03 08:48:01;;;;;;;12.88;1.52;;;8.50;48.30;;;;;;5008113;28;20050;-40
2023/04/03 08:50:34;;;;;;;8.05;1.60;;;8.50;48.20;;;;;;4999861;28;20050;-37
2023/04/03 08:53:04;;;;;;;8.75;1.70;;;8.60;48.00;;;;;;5005963;28;20054;-37
2023/04/03 08:55:40;;;;;;;3.28;1.27;;;8.60;47.60;;;;;;5004906;28;20054;-39
2023/04/03 08:58:12;;;;;;;3.92;1.15;;;8.60;47.30;;;;;;5001630;28;20409;-41
2023/04/03 09:00:45;;;;;;;3.53;1.23;;;8.60;47.40;;;;;;5005926;28;20420;-38
2023/04/03 09:03:14;;;;;;;4.78;1.40;;;8.70;47.50;;;;;;4998541;28;20045;-42
2023/04/03 09:05:48;;;;;;;4.68;1.48;;;8.70;47.40;;;;;;5003677;28;20058;-40
2023/04/03 09:08:25;;;;;;;6.38;1.50;;;8.70;47.40;;;;;;5007031;28;20042;-41
2023/04/03 09:11:05;;;;;;;7.95;1.45;;;8.80;47.20;;;;;;5016016;28;20076;-38
2023/04/03 09:13:40;;;;;;;5.50;1.60;;;8.80;47.20;;;;;;5005259;28;20050;-38
2023/04/03 09:16:26;;;;;;;6.15;1.35;;;8.80;47.40;;;;;;5002836;28;20153;-41
2023/04/03 09:18:59;;;;;;;9.75;1.83;;;8.90;47.40;;;;;;4997392;28;20513;-40
2023/04/03 09:21:32;;;;;;;4.45;1.50;;;8.90;47.60;;;;;;5004369;28;20513;-41
2023/04/03 09:24:02;;;;;;;4.50;1.83;;;9.00;47.30;;;;;;5000645;28;20045;-43
2023/04/03 09:26:36;;;;;;;5.22;1.75;;;9.00;47.10;;;;;;5000904;28;21026;-41
2023/04/03 09:29:07;;;;;;;9.73;1.90;;;9.10;46.50;;;;;;4999343;28;20061;-41
2023/04/03 09:31:39;;;;;;;3.97;1.65;;;9.10;46.20;;;;;;5010106;28;20060;-38
2023/04/03 09:34:14;;;;;;;5.03;1.20;;;9.10;46.00;;;;;;4999147;28;20393;-43
2023/04/03 09:36:44;;;;;;;6.00;1.45;;;9.20;45.80;;;;;;5005643;28;20553;-42
2023/04/03 09:39:14;;;;;;;7.57;1.48;;;9.20;45.80;;;;;;4998890;28;20064;-40
2023/04/03 09:41:55;;;;;;;4.60;1.20;;;9.20;45.80;;;;;;5009018;28;20171;-39
2023/04/03 09:44:24;;;;;;;9.02;2.45;;;9.20;46.00;;;;;;5004704;28;20410;-41
2023/04/03 09:46:51;;;;;;;14.13;2.80;;;9.20;46.10;;;;;;5003754;28;20057;-40
2023/04/03 09:49:20;;;;;;;4.75;1.02;;;9.20;46.20;;;;;;5002991;28;20506;-38
2023/04/03 09:51:47;;;;;;;20.15;2.67;;;9.30;45.70;;;;;;5004915;28;20064;-43
2023/04/03 09:54:30;;;;;;;7.13;1.73;;;9.30;45.60;;;;;;5000530;28;20053;-40
2023/04/03 09:57:04;;;;;;;6.15;1.75;;;9.30;45.60;;;;;;5008044;28;20058;-40
2023/04/03 09:59:32;;;;;;;;;;;9.40;45.40;;;;;;5008128;28;20064;-39
2023/04/03 10:02:02;;;;;;;5.00;1.40;;;9.40;45.60;;;;;;5001489;28;19925;-42
2023/04/03 10:04:39;;;;;;;4.15;1.13;;;9.50;45.00;;;;;;5004664;28;20395;-38
2023/04/03 10:07:28;;;;;;;4.28;1.48;;;9.50;44.30;;;;;;5007743;28;20049;-38
2023/04/03 10:09:57;;;;;;;6.13;1.77;;;9.50;44.30;;;;;;5006899;28;20060;-39
2023/04/03 10:12:26;;;;;;;3.50;1.05;;;9.50;44.20;;;;;;5002875;28;20057;-40
2023/04/03 10:14:57;;;;;;;3.38;1.15;;;9.60;43.60;;;;;;5008280;28;20065;-39
2023/04/03 10:17:45;;;;;;;2.30;1.05;;;9.60;43.80;;;;;;5001107;28;20414;-40
2023/04/03 10:20:31;;;;;;;2.83;0.90;;;9.60;43.90;;;;;;5005214;28;20425;-39
2023/04/03 10:23:11;;;;;;;5.35;1.00;;;9.70;43.50;;;;;;5007579;28;20113;-39
2023/04/03 10:25:44;;;;;;;8.80;1.30;;;9.70;43.60;;;;;;5007762;28;20057;-38
2023/04/03 10:28:20;;;;;;;3.83;0.77;;;9.70;43.60;;;;;;5008557;28;20508;-37
2023/04/03 10:30:56;;;;;;;4.38;0.90;;;9.70;43.50;;;;;;5005505;28;20053;-42
2023/04/03 10:33:53;;;;;;;3.97;1.05;;;9.80;43.10;;;;;;4999634;28;20054;-38
2023/04/03 10:36:30;;;;;;;4.18;0.93;;;9.80;42.80;;;;;;4990673;28;20045;-40
2023/04/03 10:39:05;;;;;;;2.83;0.88;;;9.80;43.10;;;;;;5008419;28;20058;-40
2023/04/03 10:41:47;;;;;;;4.22;1.05;;;9.90;42.90;;;;;;5003613;28;20046;-39
2023/04/03 10:44:29;;;;;;;2.58;0.95;;;9.90;42.80;;;;;;5002683;28;20494;-41
2023/04/03 10:47:03;;;;;;;2.97;0.85;;;10.00;42.90;;;;;;4998586;28;20049;-42
2023/04/03 10:49:46;;;;;;;4.85;1.00;;;9.90;43.10;;;;;;5010099;28;20497;-39
2023/04/03 10:52:20;;;;;;;4.10;1.10;;;9.90;42.90;;;;;;5000011;28;20064;-39
2023/04/03 10:54:57;;;;;;;2.50;1.10;;;9.90;43.00;;;;;;4999102;28;21354;-43
2023/04/03 10:57:26;;;;;;;4.85;1.20;;;10.00;43.00;;;;;;5010689;28;20049;-40
2023/04/03 11:00:00;;;;;;;8.07;1.10;;;10.00;43.30;;;;;;5008492;28;20050;-40
2023/04/03 11:02:31;;;;;;;3.35;0.90;;;10.00;43.20;;;;;;5000319;28;20064;-43
2023/04/03 11:05:02;;;;;;;3.55;1.05;;;10.00;42.90;;;;;;4994528;28;20054;-44
2023/04/03 11:07:33;;;;;;;2.67;1.00;;;10.10;42.20;;;;;;5002989;28;20414;-41
2023/04/03 11:10:04;;;;;;;3.22;0.90;;;10.10;42.20;;;;;;5007297;28;20050;-38
2023/04/03 11:12:42;;;;;;;9.00;1.10;;;10.10;42.50;;;;;;5000541;28;20057;-43
2023/04/03 11:15:17;;;;;;;2.95;0.88;;;10.10;41.90;;;;;;4998640;28;20137;-41
2023/04/03 11:17:50;;;;;;;2.67;1.00;;;10.10;42.20;;;;;;4999143;28;20061;-44
2023/04/03 11:20:21;;;;;;;4.00;1.00;;;10.20;42.10;;;;;;4995966;28;20058;-39
2023/04/03 11:22:52;;;;;;;2.22;1.27;;;10.20;42.00;;;;;;5006534;28;20066;-37
2023/04/03 11:25:23;;;;;;;2.88;1.15;;;10.20;42.00;;;;;;5008831;28;20045;-42
2023/04/03 11:27:56;;;;;;;3.95;1.27;;;10.20;42.00;;;;;;5003019;28;20054;-44
2023/04/03 11:30:31;;;;;;;13.88;2.75;;;10.30;42.10;;;;;;5004762;28;20053;-43
2023/04/03 11:33:13;;;;;;;21.10;3.97;;;10.30;42.30;;;;;;5003502;28;20053;-44
2023/04/03 11:35:44;;;;;;;5.22;0.98;;;10.30;42.20;;;;;;5016877;28;20057;-45
2023/04/03 11:38:18;;;;;;;3.20;0.90;;;10.30;42.00;;;;;;5020607;28;20060;-44
2023/04/03 11:40:45;;;;;;;;;;;10.40;41.80;;;;;;5015528;28;20061;-47
2023/04/03 11:43:25;;;;;;;3.45;1.02;;;10.50;42.10;;;;;;5012407;28;20309;-46
2023/04/03 11:46:00;;;;;;;3.28;1.30;;;10.40;41.40;;;;;;5018907;28;20064;-44
2023/04/03 11:48:53;;;;;;;2.05;0.90;;;10.50;41.40;;;;;;5016565;28;20050;-44
2023/04/03 11:51:52;;;;;;;3.42;1.17;;;10.50;40.80;;;;;;5013263;28;20076;-43
2023/04/03 11:54:46;;;;;;;3.50;1.17;;;10.50;40.60;;;;;;4998167;28;20523;-43
2023/04/03 11:58:03;;;;;;;3.33;0.93;;;10.50;40.70;;;;;;5012929;28;20049;-43
2023/04/03 12:01:07;;;;;;;2.92;0.80;;;10.50;40.50;;;;;;5012312;28;20049;-42
2023/04/03 12:04:07;;;;;;;3.85;0.80;;;10.50;40.70;;;;;;5004215;28;20053;-45
2023/04/03 12:07:14;;;;;;;2.10;0.80;;;10.50;40.80;;;;;;5018218;28;20053;-43
2023/04/03 12:10:15;;;;;;;5.05;0.90;;;10.50;40.30;;;;;;5013643;28;20404;-43
2023/04/03 12:12:43;;;;;;;4.20;0.90;;;10.50;39.80;;;;;;5018055;28;20065;-44
2023/04/03 12:15:24;;;;;;;7.30;0.90;;;10.60;39.50;;;;;;5006892;28;20057;-46
2023/04/03 12:17:52;;;;;;;3.08;0.90;;;10.60;39.30;;;;;;5006929;28;20050;-44
2023/04/03 12:20:54;;;;;;;4.80;0.80;;;10.60;39.70;;;;;;5010601;28;20057;-42
2023/04/03 12:23:28;;;;;;;2.00;1.00;;;10.60;39.50;;;;;;5009594;28;20069;-42
2023/04/03 12:26:04;;;;;;;6.93;1.15;;;10.60;39.50;;;;;;5013552;28;20490;-43
2023/04/03 12:28:39;;;;;;;2.45;0.80;;;10.60;39.10;;;;;;5008711;28;20390;-45
2023/04/03 12:31:11;;;;;;;3.42;0.90;;;10.60;38.90;;;;;;5007592;28;20062;-44
2023/04/03 12:33:59;;;;;;;3.72;1.30;;;10.60;39.30;;;;;;5008579;28;20432;-44
2023/04/03 12:36:34;;;;;;;2.15;0.95;;;10.60;39.10;;;;;;5011914;28;20053;-42
2023/04/03 12:39:20;;;;;;;3.00;1.08;;;10.60;39.30;;;;;;5016923;28;20069;-43
2023/04/03 12:41:58;;;;;;;3.10;1.20;;;10.60;39.00;;;;;;5017493;28;20484;-43
2023/04/03 12:44:41;;;;;;;3.30;1.13;;;10.60;39.00;;;;;;5001101;28;20049;-43
2023/04/03 12:47:23;;;;;;;5.57;1.33;;;10.70;38.40;;;;;;5002214;28;20058;-46
2023/04/03 12:49:55;;;;;;;2.55;1.08;;;10.70;39.10;;;;;;5010211;28;20505;-44
2023/04/03 12:52:32;;;;;;;6.75;1.15;;;10.70;39.30;;;;;;5006875;28;20410;-47
2023/04/03 12:55:03;;;;;;;2.33;1.02;;;10.80;39.10;;;;;;5019042;28;20049;-47
2023/04/03 12:57:32;;;;;;;5.03;1.48;;;10.80;39.30;;;;;;5021788;28;20057;-44
2023/04/03 13:00:00;;;;;;;3.08;1.20;;;10.80;39.40;;;;;;5010609;28;20362;-45
2023/04/03 13:02:29;;;;;;;2.50;1.02;;;10.90;39.40;;;;;;5016060;28;20050;-46
2023/04/03 13:04:59;;;;;;;5.60;1.10;;;10.90;39.60;;;;;;4990774;28;20425;-45
2023/04/03 13:07:31;;;;;;;2.35;0.80;;;10.90;39.20;;;;;;5003736;28;20406;-45
2023/04/03 13:10:01;;;;;;;2.92;1.30;;;10.90;39.10;;;;;;5004595;28;20057;-43
2023/04/03 13:12:28;;;;;;;7.90;1.92;;;10.90;39.00;;;;;;4999745;28;20058;-43
2023/04/03 13:14:59;;;;;;;5.07;1.20;;;10.90;39.50;;;;;;5008459;28;20117;-43